createdAt,value
2019-02-14T00:00:14.250Z,0.00
2019-02-14T00:01:14.241Z,0.00
2019-02-14T00:02:14.217Z,0.00
2019-02-14T00:03:14.217Z,0.00
2019-02-14T00:04:14.238Z,0.00
2019-02-14T00:05:16.505Z,0.00
2019-02-14T00:06:14.184Z,0.00
2019-02-14T00:07:14.194Z,0.00
2019-02-14T00:08:14.160Z,0.00
2019-02-14T00:09:14.160Z,0.00
2019-02-14T00:10:14.126Z,0.00
2019-02-14T00:11:14.119Z,0.00
2019-02-14T00:12:14.097Z,0.00
2019-02-14T00:13:14.075Z,0.00
2019-02-14T00:14:14.052Z,0.00
2019-02-14T00:15:14.048Z,0.00
2019-02-14T00:16:14.075Z,0.00
2019-02-14T00:17:14.065Z,0.00
2019-02-14T00:18:14.022Z,0.00
2019-02-14T00:19:14.017Z,0.00
2019-02-14T00:20:13.992Z,0.00
2019-02-14T00:21:14.020Z,0.00
2019-02-14T00:22:13.979Z,0.00
2019-02-14T00:23:13.941Z,0.00
2019-02-14T00:24:13.963Z,0.00
2019-02-14T00:25:13.926Z,0.00
2019-02-14T00:26:13.966Z,0.00
2019-02-14T00:27:13.905Z,0.00
2019-02-14T00:28:13.879Z,0.00
2019-02-14T00:29:13.929Z,0.00
2019-02-14T00:30:13.872Z,0.00
2019-02-14T00:31:13.859Z,0.00
2019-02-14T00:32:13.826Z,0.00
2019-02-14T00:33:13.826Z,0.00
2019-02-14T00:34:13.822Z,0.00
2019-02-14T00:35:13.794Z,0.00
2019-02-14T00:36:13.810Z,0.00
2019-02-14T00:37:13.795Z,0.00
2019-02-14T00:38:13.755Z,0.00
2019-02-14T00:39:13.753Z,0.00
2019-02-14T00:40:13.761Z,0.00
2019-02-14T00:41:13.720Z,0.00
2019-02-14T00:42:13.726Z,0.00
2019-02-14T00:43:13.701Z,0.00
2019-02-14T00:44:13.665Z,0.00
2019-02-14T00:45:13.683Z,0.00
2019-02-14T00:46:13.643Z,0.00
2019-02-14T00:47:13.663Z,0.00
2019-02-14T00:48:13.640Z,0.00
2019-02-14T00:49:13.626Z,0.00
2019-02-14T00:50:13.591Z,0.00
2019-02-14T00:51:13.619Z,0.00
2019-02-14T00:52:13.599Z,0.00
2019-02-14T00:53:13.557Z,0.00
2019-02-14T00:54:13.553Z,0.00
2019-02-14T00:55:13.524Z,0.00
2019-02-14T00:56:13.517Z,0.00
2019-02-14T00:57:13.519Z,0.00
2019-02-14T00:58:13.597Z,0.00
2019-02-14T00:59:13.485Z,0.00
2019-02-14T01:00:13.487Z,0.00
2019-02-14T01:01:13.445Z,0.00
2019-02-14T01:02:13.433Z,0.00
2019-02-14T01:03:13.419Z,0.00
2019-02-14T01:04:13.412Z,0.00
2019-02-14T01:05:13.431Z,0.00
2019-02-14T01:06:13.384Z,0.00
2019-02-14T01:07:13.369Z,0.00
2019-02-14T01:08:13.360Z,0.00
2019-02-14T01:09:13.350Z,0.00
2019-02-14T01:10:13.342Z,0.00
2019-02-14T01:11:13.324Z,0.00
2019-02-14T01:12:13.313Z,0.00
2019-02-14T01:13:13.285Z,0.00
2019-02-14T01:14:13.278Z,0.00
2019-02-14T01:15:13.270Z,0.00
2019-02-14T01:16:13.249Z,0.00
2019-02-14T01:17:13.247Z,0.00
2019-02-14T01:18:13.267Z,0.00
2019-02-14T01:19:13.219Z,0.00
2019-02-14T01:20:13.213Z,0.00
2019-02-14T01:21:13.184Z,0.00
2019-02-14T01:22:13.218Z,0.00
2019-02-14T01:23:13.151Z,0.00
2019-02-14T01:24:13.185Z,0.00
2019-02-14T01:25:13.182Z,0.00
2019-02-14T01:26:13.119Z,0.00
2019-02-14T01:27:13.216Z,0.00
2019-02-14T01:28:13.131Z,0.00
2019-02-14T01:29:13.242Z,0.00
2019-02-14T01:30:13.084Z,0.00
2019-02-14T01:31:13.066Z,0.00
2019-02-14T01:32:13.049Z,0.00
2019-02-14T01:33:13.059Z,0.00
2019-02-14T01:34:13.017Z,0.00
2019-02-14T01:35:13.011Z,0.00
2019-02-14T01:36:12.983Z,0.00
2019-02-14T01:37:12.977Z,0.00
2019-02-14T01:38:12.961Z,0.00
2019-02-14T01:39:12.976Z,0.00
2019-02-14T01:40:12.985Z,0.00
2019-02-14T01:41:12.917Z,0.00
2019-02-14T01:42:12.917Z,0.00
2019-02-14T01:43:12.901Z,0.00
2019-02-14T01:44:12.913Z,0.00
2019-02-14T01:45:12.874Z,0.00
2019-02-14T01:46:12.902Z,0.00
2019-02-14T01:47:12.834Z,0.00
2019-02-14T01:48:12.842Z,0.00
2019-02-14T01:49:12.821Z,0.00
2019-02-14T01:50:12.789Z,0.00
2019-02-14T01:51:12.768Z,0.00
2019-02-14T01:52:12.768Z,0.00
2019-02-14T01:53:12.760Z,0.00
2019-02-14T01:54:12.795Z,0.00
2019-02-14T01:55:12.763Z,0.00
2019-02-14T01:56:12.711Z,0.00
2019-02-14T01:57:12.703Z,0.00
2019-02-14T01:58:12.689Z,0.00
2019-02-14T01:59:12.699Z,0.00
2019-02-14T02:00:12.651Z,0.00
2019-02-14T02:01:12.656Z,0.00
2019-02-14T02:02:12.661Z,0.00
2019-02-14T02:03:12.614Z,0.00
2019-02-14T02:04:12.628Z,0.00
2019-02-14T02:05:12.614Z,0.00
2019-02-14T02:06:12.596Z,0.00
2019-02-14T02:07:12.581Z,0.00
2019-02-14T02:08:12.584Z,0.00
2019-02-14T02:09:12.592Z,0.00
2019-02-14T02:10:12.539Z,0.00
2019-02-14T02:11:12.519Z,0.00
2019-02-14T02:12:12.499Z,0.00
2019-02-14T02:13:12.505Z,0.00
2019-02-14T02:14:12.500Z,0.00
2019-02-14T02:15:12.460Z,0.00
2019-02-14T02:16:12.436Z,0.00
2019-02-14T02:17:12.432Z,0.00
2019-02-14T02:18:12.419Z,0.00
2019-02-14T02:19:12.415Z,0.00
2019-02-14T02:20:12.423Z,0.00
2019-02-14T02:21:12.373Z,0.00
2019-02-14T02:22:12.354Z,0.00
2019-02-14T02:23:12.342Z,0.00
2019-02-14T02:24:12.332Z,0.00
2019-02-14T02:25:12.333Z,0.00
2019-02-14T02:26:12.303Z,0.00
2019-02-14T02:27:12.332Z,0.00
2019-02-14T02:28:12.275Z,0.00
2019-02-14T02:29:12.295Z,0.00
2019-02-14T02:30:12.364Z,0.00
2019-02-14T02:31:12.270Z,0.00
2019-02-14T02:32:12.288Z,0.00
2019-02-14T02:33:12.215Z,0.00
2019-02-14T02:34:12.191Z,0.00
2019-02-14T02:35:12.212Z,0.00
2019-02-14T02:36:12.182Z,0.00
2019-02-14T02:37:12.160Z,0.00
2019-02-14T02:38:12.144Z,0.00
2019-02-14T02:39:12.137Z,0.00
2019-02-14T02:40:12.207Z,0.00
2019-02-14T02:41:12.108Z,0.00
2019-02-14T02:42:12.116Z,0.00
2019-02-14T02:43:12.083Z,0.00
2019-02-14T02:44:12.100Z,0.00
2019-02-14T02:45:12.066Z,0.00
2019-02-14T02:46:12.066Z,0.00
2019-02-14T02:47:12.060Z,0.00
2019-02-14T02:48:12.006Z,0.00
2019-02-14T02:49:12.007Z,0.00
2019-02-14T02:50:12.007Z,0.00
2019-02-14T02:51:11.987Z,0.00
2019-02-14T02:52:12.024Z,0.00
2019-02-14T02:53:11.966Z,0.00
2019-02-14T02:54:11.958Z,0.00
2019-02-14T02:55:11.923Z,0.00
2019-02-14T02:56:11.900Z,0.00
2019-02-14T02:57:11.886Z,0.00
2019-02-14T02:58:11.883Z,0.00
2019-02-14T03:13:52.308Z,0.00
2019-02-14T03:14:52.038Z,0.00
2019-02-14T03:15:52.017Z,0.00
2019-02-14T03:16:52.174Z,0.00
2019-02-14T03:17:51.930Z,0.00
2019-02-14T03:18:51.919Z,0.00
2019-02-14T03:19:51.945Z,0.00
2019-02-14T03:20:51.933Z,0.00
2019-02-14T03:21:51.885Z,0.00
2019-02-14T03:22:51.895Z,0.00
2019-02-14T03:23:51.877Z,0.00
2019-02-14T03:24:51.816Z,0.00
2019-02-14T03:25:51.831Z,0.00
2019-02-14T03:26:51.804Z,0.00
2019-02-14T03:27:51.792Z,0.00
2019-02-14T03:28:51.796Z,0.00
2019-02-14T03:29:51.746Z,0.00
2019-02-14T03:30:51.725Z,0.00
2019-02-14T03:31:51.730Z,0.00
2019-02-14T03:32:51.723Z,0.00
2019-02-14T03:33:51.770Z,0.00
2019-02-14T03:34:51.759Z,0.00
2019-02-14T03:35:51.649Z,0.00
2019-02-14T03:36:51.679Z,0.00
2019-02-14T03:37:51.658Z,0.00
2019-02-14T03:38:51.672Z,0.00
2019-02-14T03:39:51.595Z,0.00
2019-02-14T03:40:51.591Z,0.00
2019-02-14T03:41:51.582Z,0.00
2019-02-14T03:42:51.572Z,0.00
2019-02-14T03:43:51.542Z,0.00
2019-02-14T03:44:51.522Z,0.00
2019-02-14T03:45:51.506Z,0.00
2019-02-14T03:46:51.495Z,0.00
2019-02-14T03:47:51.488Z,0.00
2019-02-14T03:48:51.467Z,0.00
2019-02-14T03:49:51.479Z,0.00
2019-02-14T03:50:51.466Z,0.00
2019-02-14T03:51:51.431Z,0.00
2019-02-14T03:52:51.471Z,0.00
2019-02-14T03:53:51.407Z,0.00
2019-02-14T03:54:51.400Z,0.00
2019-02-14T03:55:51.373Z,0.00
2019-02-14T03:56:51.394Z,0.00
2019-02-14T03:57:51.333Z,0.00
2019-02-14T03:58:51.325Z,0.00
2019-02-14T03:59:51.349Z,0.00
2019-02-14T04:00:51.327Z,0.00
2019-02-14T04:01:51.308Z,0.00
2019-02-14T04:02:51.295Z,0.00
2019-02-14T04:03:51.285Z,0.00
2019-02-14T04:04:51.306Z,0.00
2019-02-14T04:05:51.270Z,0.00
2019-02-14T04:06:51.234Z,0.00
2019-02-14T04:07:51.258Z,0.00
2019-02-14T04:08:51.180Z,0.00
2019-02-14T04:09:51.161Z,0.00
2019-02-14T04:10:51.181Z,0.00
2019-02-14T04:11:51.145Z,0.00
2019-02-14T04:12:51.120Z,0.00
2019-02-14T04:13:51.181Z,0.00
2019-02-14T04:14:51.102Z,0.00
2019-02-14T04:15:51.111Z,0.00
2019-02-14T04:16:51.069Z,0.00
2019-02-14T04:17:51.118Z,0.00
2019-02-14T04:18:51.037Z,0.00
2019-02-14T04:19:51.033Z,0.00
2019-02-14T04:20:51.071Z,0.00
2019-02-14T04:21:51.026Z,0.00
2019-02-14T04:22:50.979Z,0.00
2019-02-14T04:23:50.969Z,0.00
2019-02-14T04:24:51.003Z,0.00
2019-02-14T04:25:50.982Z,0.00
2019-02-14T04:26:50.945Z,0.00
2019-02-14T04:27:50.938Z,0.00
2019-02-14T04:28:50.913Z,0.00
2019-02-14T04:29:50.904Z,0.00
2019-02-14T04:30:50.869Z,0.00
2019-02-14T04:31:50.906Z,0.00
2019-02-14T04:32:59.773Z,0.00
2019-02-14T04:34:55.927Z,0.00
2019-02-14T04:35:55.306Z,0.00
2019-02-14T04:37:04.214Z,0.00
2019-02-14T04:39:00.017Z,0.00
2019-02-14T04:39:59.751Z,0.00
2019-02-14T04:40:59.706Z,0.00
2019-02-14T04:41:59.795Z,0.00
2019-02-14T04:42:59.688Z,0.00
2019-02-14T04:43:59.801Z,0.00
2019-02-14T04:44:59.654Z,0.00
2019-02-14T04:45:59.783Z,0.00
2019-02-14T04:46:59.620Z,0.00
2019-02-14T04:47:59.609Z,0.00
2019-02-14T04:48:59.599Z,0.00
2019-02-14T04:49:59.578Z,0.00
2019-02-14T04:50:59.584Z,0.00
2019-02-14T04:51:59.546Z,0.00
2019-02-14T04:52:59.521Z,0.00
2019-02-14T04:53:59.509Z,0.00
2019-02-14T04:54:59.509Z,0.00
2019-02-14T04:55:59.482Z,0.00
2019-02-14T04:56:59.474Z,0.00
2019-02-14T04:57:59.475Z,0.00
2019-02-14T04:58:59.442Z,0.00
2019-02-14T04:59:59.444Z,0.00
2019-02-14T05:00:59.471Z,0.00
2019-02-14T05:02:00.651Z,0.00
2019-02-14T05:02:59.903Z,0.00
2019-02-14T05:03:59.444Z,0.00
2019-02-14T05:04:59.373Z,0.00
2019-02-14T05:05:59.360Z,0.00
2019-02-14T05:06:59.547Z,0.00
2019-02-14T05:07:59.396Z,0.00
2019-02-14T05:08:59.411Z,0.00
2019-02-14T05:09:59.281Z,0.00
2019-02-14T05:10:59.317Z,0.00
2019-02-14T05:11:59.265Z,0.00
2019-02-14T05:12:59.254Z,0.00
2019-02-14T05:14:00.201Z,0.00
2019-02-14T05:14:59.281Z,0.00
2019-02-14T05:15:59.196Z,0.00
2019-02-14T05:16:59.204Z,0.00
2019-02-14T05:17:59.175Z,0.00
2019-02-14T05:18:59.213Z,0.00
2019-02-14T05:19:59.154Z,0.00
2019-02-14T05:20:59.131Z,0.00
2019-02-14T05:21:59.161Z,0.00
2019-02-14T05:22:59.126Z,0.00
2019-02-14T05:23:59.095Z,0.00
2019-02-14T05:24:59.086Z,0.00
2019-02-14T05:25:59.055Z,0.00
2019-02-14T05:26:59.120Z,0.00
2019-02-14T05:27:59.047Z,0.00
2019-02-14T05:28:59.030Z,0.00
2019-02-14T05:29:59.075Z,0.00
2019-02-14T05:30:59.042Z,0.00
2019-02-14T05:31:58.984Z,0.00
2019-02-14T05:32:58.976Z,0.00
2019-02-14T05:33:58.971Z,0.00
2019-02-14T05:34:58.935Z,0.00
2019-02-14T05:35:58.950Z,0.00
2019-02-14T05:36:58.894Z,0.00
2019-02-14T05:37:58.917Z,0.00
2019-02-14T05:38:58.906Z,0.00
2019-02-14T05:39:58.908Z,0.00
2019-02-14T05:40:58.878Z,0.00
2019-02-14T05:41:58.881Z,0.00
2019-02-14T05:42:58.830Z,0.00
2019-02-14T05:43:58.814Z,0.00
2019-02-14T05:44:58.809Z,0.00
2019-02-14T05:45:58.794Z,0.00
2019-02-14T05:46:58.794Z,0.00
2019-02-14T05:47:58.762Z,0.00
2019-02-14T05:48:58.761Z,0.00
2019-02-14T05:49:58.791Z,0.00
2019-02-14T05:50:58.733Z,0.00
2019-02-14T05:51:58.855Z,0.00
2019-02-14T05:52:58.782Z,0.00
2019-02-14T05:53:58.825Z,0.00
2019-02-14T05:54:58.785Z,0.00
2019-02-14T05:55:58.711Z,0.00
2019-02-14T05:56:58.695Z,0.00
2019-02-14T05:57:58.621Z,0.00
2019-02-14T05:58:58.717Z,0.00
2019-02-14T05:59:58.620Z,0.00
2019-02-14T06:00:58.540Z,0.00
2019-02-14T06:01:58.562Z,0.00
2019-02-14T06:02:58.520Z,0.00
2019-02-14T06:03:58.506Z,0.00
2019-02-14T06:04:58.532Z,0.00
2019-02-14T06:05:58.512Z,0.00
2019-02-14T06:07:01.144Z,0.00
2019-02-14T06:07:58.488Z,0.00
2019-02-14T06:08:58.450Z,4.00
2019-02-14T06:09:58.430Z,4.00
2019-02-14T06:10:58.430Z,0.00
2019-02-14T06:11:58.424Z,4.00
2019-02-14T06:12:58.417Z,4.00
2019-02-14T06:13:58.359Z,4.00
2019-02-14T06:14:58.336Z,4.00
2019-02-14T06:15:58.327Z,8.00
2019-02-14T06:16:58.325Z,8.00
2019-02-14T06:17:58.355Z,8.00
2019-02-14T06:18:58.430Z,12.00
2019-02-14T06:19:58.367Z,16.00
2019-02-14T06:20:58.259Z,12.00
2019-02-14T06:21:58.261Z,16.00
2019-02-14T06:22:58.303Z,20.00
2019-02-14T06:23:58.221Z,24.00
2019-02-14T06:24:58.226Z,28.00
2019-02-14T06:25:58.186Z,32.00
2019-02-14T06:26:58.161Z,32.00
2019-02-14T06:27:58.173Z,36.00
2019-02-14T06:28:58.260Z,44.00
2019-02-14T06:29:58.129Z,48.00
2019-02-14T06:30:58.153Z,52.00
2019-02-14T06:31:58.094Z,60.00
2019-02-14T06:32:58.089Z,64.00
2019-02-14T06:33:58.059Z,72.00
2019-02-14T06:34:58.063Z,76.00
2019-02-14T06:35:58.069Z,84.00
2019-02-14T06:36:58.016Z,92.00
2019-02-14T06:37:58.010Z,100.00
2019-02-14T06:38:57.995Z,104.00
2019-02-14T06:39:57.976Z,116.00
2019-02-14T06:40:57.960Z,124.00
2019-02-14T06:41:57.968Z,132.00
2019-02-14T06:42:57.953Z,148.00
2019-02-14T06:43:57.910Z,156.00
2019-02-14T06:44:57.983Z,168.00
2019-02-14T06:45:57.905Z,180.00
2019-02-14T06:46:57.889Z,192.00
2019-02-14T06:47:57.848Z,204.00
2019-02-14T06:48:57.871Z,216.00
2019-02-14T06:49:57.832Z,228.00
2019-02-14T06:50:57.811Z,240.00
2019-02-14T06:51:57.856Z,260.00
2019-02-14T06:52:57.790Z,268.00
2019-02-14T06:53:57.768Z,284.00
2019-02-14T06:54:57.779Z,296.00
2019-02-14T06:55:57.757Z,308.00
2019-02-14T06:56:57.718Z,320.00
2019-02-14T06:57:57.705Z,328.00
2019-02-14T06:58:57.701Z,340.00
2019-02-14T06:59:57.715Z,352.00
2019-02-14T07:00:57.680Z,364.00
2019-02-14T07:01:57.676Z,380.00
2019-02-14T07:02:57.636Z,408.00
2019-02-14T07:03:57.639Z,408.00
2019-02-14T07:04:57.604Z,412.00
2019-02-14T07:05:57.620Z,420.00
2019-02-14T07:06:57.605Z,424.00
2019-02-14T07:07:57.570Z,440.00
2019-02-14T07:08:57.572Z,456.00
2019-02-14T07:09:57.597Z,472.00
2019-02-14T07:10:57.766Z,492.00
2019-02-14T07:11:57.607Z,512.00
2019-02-14T07:12:57.500Z,536.00
2019-02-14T07:13:57.469Z,552.00
2019-02-14T07:14:57.476Z,576.00
2019-02-14T07:15:57.436Z,600.00
2019-02-14T07:16:57.425Z,624.00
2019-02-14T07:17:57.433Z,636.00
2019-02-14T07:18:57.582Z,648.00
2019-02-14T07:19:57.450Z,648.00
2019-02-14T07:20:57.428Z,652.00
2019-02-14T07:21:57.406Z,672.00
2019-02-14T07:22:57.345Z,700.00
2019-02-14T07:23:57.457Z,724.00
2019-02-14T07:24:57.370Z,752.00
2019-02-14T07:25:57.297Z,780.00
2019-02-14T07:26:58.220Z,804.00
2019-02-14T07:27:58.222Z,816.00
2019-02-14T07:28:57.278Z,836.00
2019-02-14T07:29:57.267Z,840.00
2019-02-14T07:30:57.243Z,800.00
2019-02-14T07:31:57.370Z,768.00
2019-02-14T07:32:57.234Z,732.00
2019-02-14T07:33:57.245Z,704.00
2019-02-14T07:34:57.213Z,704.00
2019-02-14T07:35:57.160Z,720.00
2019-02-14T07:36:57.171Z,696.00
2019-02-14T07:37:57.242Z,688.00
2019-02-14T07:38:57.122Z,692.00
2019-02-14T07:39:57.186Z,704.00
2019-02-14T07:40:57.230Z,696.00
2019-02-14T07:41:57.109Z,704.00
2019-02-14T07:42:57.168Z,760.00
2019-02-14T07:43:57.050Z,800.00
2019-02-14T07:44:57.034Z,800.00
2019-02-14T07:45:57.076Z,756.00
2019-02-14T07:46:57.033Z,728.00
2019-02-14T07:47:57.056Z,740.00
2019-02-14T07:48:57.134Z,744.00
2019-02-14T07:49:56.991Z,756.00
2019-02-14T07:50:56.952Z,760.00
2019-02-14T07:51:56.941Z,772.00
2019-02-14T07:52:56.943Z,812.00
2019-02-14T07:53:56.913Z,884.00
2019-02-14T07:54:56.931Z,936.00
2019-02-14T07:55:56.910Z,956.00
2019-02-14T07:56:56.918Z,968.00
2019-02-14T07:57:57.002Z,980.00
2019-02-14T07:58:56.858Z,984.00
2019-02-14T07:59:56.864Z,988.00
2019-02-14T08:00:56.806Z,992.00
2019-02-14T08:01:56.880Z,1000.00
2019-02-14T08:02:56.796Z,1004.00
2019-02-14T08:03:56.769Z,1000.00
2019-02-14T08:04:56.789Z,996.00
2019-02-14T08:05:56.752Z,988.00
2019-02-14T08:06:56.739Z,992.00
2019-02-14T08:07:56.741Z,988.00
2019-02-14T08:08:56.734Z,980.00
2019-02-14T08:09:56.782Z,964.00
2019-02-14T08:10:56.670Z,948.00
2019-02-14T08:11:56.686Z,944.00
2019-02-14T08:12:56.669Z,932.00
2019-02-14T08:13:56.665Z,976.00
2019-02-14T08:14:56.616Z,992.00
2019-02-14T08:15:56.709Z,988.00
2019-02-14T08:16:56.626Z,984.00
2019-02-14T08:17:56.574Z,984.00
2019-02-14T08:18:56.587Z,1020.00
2019-02-14T08:19:56.539Z,1036.00
2019-02-14T08:20:56.541Z,1044.00
2019-02-14T08:21:56.549Z,1048.00
2019-02-14T08:22:56.554Z,1060.00
2019-02-14T08:23:56.511Z,1068.00
2019-02-14T08:24:56.483Z,1068.00
2019-02-14T08:25:56.466Z,1064.00
2019-02-14T08:26:56.488Z,1076.00
2019-02-14T08:27:56.486Z,1076.00
2019-02-14T08:28:56.444Z,1104.00
2019-02-14T08:29:56.471Z,1044.00
2019-02-14T08:30:56.391Z,1100.00
2019-02-14T08:31:56.438Z,1124.00
2019-02-14T08:32:56.393Z,1136.00
2019-02-14T08:33:56.386Z,1116.00
2019-02-14T08:34:56.366Z,1164.00
2019-02-14T08:35:56.348Z,1144.00
2019-02-14T08:36:56.345Z,1168.00
2019-02-14T08:37:56.352Z,1160.00
2019-02-14T08:38:56.317Z,1192.00
2019-02-14T08:39:56.277Z,1180.00
2019-02-14T08:40:56.258Z,1196.00
2019-02-14T08:41:56.262Z,1200.00
2019-02-14T08:42:56.256Z,1204.00
2019-02-14T08:43:56.225Z,1208.00
2019-02-14T08:44:56.201Z,1204.00
2019-02-14T08:45:56.191Z,1164.00
2019-02-14T08:46:56.202Z,1160.00
2019-02-14T08:47:56.227Z,1184.00
2019-02-14T08:48:56.169Z,1168.00
2019-02-14T08:49:56.134Z,1196.00
2019-02-14T08:50:56.133Z,1192.00
2019-02-14T08:51:56.103Z,1184.00
2019-02-14T08:52:56.115Z,1260.00
2019-02-14T08:53:56.143Z,1196.00
2019-02-14T08:54:56.128Z,1204.00
2019-02-14T08:55:56.134Z,1212.00
2019-02-14T08:56:56.045Z,1244.00
2019-02-14T08:57:56.062Z,1244.00
2019-02-14T08:58:56.045Z,1236.00
2019-02-14T08:59:56.073Z,1236.00
2019-02-14T09:00:56.015Z,1260.00
2019-02-14T09:01:57.495Z,1260.00
2019-02-14T09:02:55.974Z,1260.00
2019-02-14T09:03:55.997Z,1232.00
2019-02-14T09:04:55.968Z,1276.00
2019-02-14T09:05:55.983Z,1256.00
2019-02-14T09:06:55.930Z,1232.00
2019-02-14T09:07:55.933Z,1208.00
2019-02-14T09:08:55.908Z,1168.00
2019-02-14T09:09:55.901Z,1216.00
2019-02-14T09:10:55.864Z,1164.00
2019-02-14T09:11:55.914Z,1292.00
2019-02-14T09:12:55.842Z,1260.00
2019-02-14T09:13:55.846Z,1236.00
2019-02-14T09:14:55.851Z,1348.00
2019-02-14T09:15:55.815Z,1292.00
2019-02-14T09:16:55.940Z,1324.00
2019-02-14T09:17:55.855Z,1328.00
2019-02-14T09:18:55.819Z,1308.00
2019-02-14T09:19:55.818Z,1312.00
2019-02-14T09:20:55.775Z,1308.00
2019-02-14T09:21:55.829Z,1300.00
2019-02-14T09:22:55.808Z,1260.00
2019-02-14T09:23:55.777Z,1216.00
2019-02-14T09:24:55.843Z,1180.00
2019-02-14T09:25:55.800Z,1240.00
2019-02-14T09:26:55.751Z,1136.00
2019-02-14T09:27:55.670Z,1164.00
2019-02-14T09:28:55.674Z,1176.00
2019-02-14T09:29:55.725Z,1076.00
2019-02-14T09:30:55.640Z,1120.00
2019-02-14T09:31:55.666Z,1148.00
2019-02-14T09:32:55.602Z,1132.00
2019-02-14T09:33:55.578Z,1112.00
2019-02-14T09:34:55.575Z,1120.00
2019-02-14T09:35:55.573Z,1076.00
2019-02-14T09:37:04.253Z,1104.00
2019-02-14T09:39:00.109Z,1088.00
2019-02-14T09:40:00.023Z,1092.00
2019-02-14T09:41:00.042Z,1072.00
2019-02-14T09:42:00.018Z,1040.00
2019-02-14T09:43:00.002Z,1072.00
2019-02-14T09:43:59.964Z,1104.00
2019-02-14T09:44:59.932Z,1064.00
2019-02-14T09:45:59.943Z,1064.00
2019-02-14T09:46:59.916Z,1068.00
2019-02-14T09:47:59.929Z,1068.00
2019-02-14T09:48:59.876Z,1072.00
2019-02-14T09:49:59.871Z,1084.00
2019-02-14T09:50:59.860Z,1076.00
2019-02-14T09:51:59.842Z,1092.00
2019-02-14T09:52:59.842Z,1100.00
2019-02-14T09:53:59.812Z,1096.00
2019-02-14T09:54:59.834Z,1104.00
2019-02-14T09:55:59.807Z,1100.00
2019-02-14T09:56:59.778Z,1100.00
2019-02-14T09:57:59.816Z,1040.00
2019-02-14T09:58:59.771Z,1064.00
2019-02-14T09:59:59.749Z,1076.00
2019-02-14T10:00:59.780Z,1072.00
2019-02-14T10:01:59.741Z,1068.00
2019-02-14T10:02:59.710Z,1072.00
2019-02-14T10:03:59.718Z,1068.00
2019-02-14T10:04:59.693Z,1052.00
2019-02-14T10:05:59.692Z,1052.00
2019-02-14T10:06:59.722Z,1044.00
2019-02-14T10:07:59.682Z,1044.00
2019-02-14T10:09:00.727Z,1024.00
2019-02-14T10:09:59.663Z,1020.00
2019-02-14T10:10:59.662Z,1004.00
2019-02-14T10:11:59.629Z,972.00
2019-02-14T10:12:59.635Z,980.00
2019-02-14T10:13:59.619Z,972.00
2019-02-14T10:14:59.603Z,1000.00
2019-02-14T10:15:59.616Z,988.00
2019-02-14T10:16:59.574Z,1004.00
2019-02-14T10:17:59.570Z,1016.00
2019-02-14T10:18:59.602Z,1008.00
2019-02-14T10:19:59.536Z,1044.00
2019-02-14T10:20:59.528Z,1048.00
2019-02-14T10:21:59.521Z,1052.00
2019-02-14T10:22:59.487Z,1052.00
2019-02-14T10:23:59.503Z,1052.00
2019-02-14T10:24:59.468Z,1056.00
2019-02-14T10:25:59.463Z,1048.00
2019-02-14T10:26:59.448Z,1056.00
2019-02-14T10:27:59.485Z,1068.00
2019-02-14T10:28:59.479Z,1068.00
2019-02-14T10:29:59.411Z,1084.00
2019-02-14T10:30:59.399Z,1104.00
2019-02-14T10:31:59.425Z,1128.00
2019-02-14T10:32:59.380Z,1128.00
2019-02-14T10:33:59.388Z,1148.00
2019-02-14T10:34:59.369Z,1156.00
2019-02-14T10:35:59.347Z,1156.00
2019-02-14T10:36:59.378Z,1160.00
2019-02-14T10:37:59.343Z,1164.00
2019-02-14T10:38:59.379Z,1160.00
2019-02-14T10:39:59.404Z,1160.00
2019-02-14T10:40:59.323Z,1156.00
2019-02-14T10:41:59.357Z,1148.00
2019-02-14T10:42:59.302Z,1128.00
2019-02-14T10:43:59.265Z,1132.00
2019-02-14T10:44:59.287Z,1116.00
2019-02-14T10:45:59.279Z,1048.00
2019-02-14T10:46:59.262Z,1032.00
2019-02-14T10:47:59.253Z,1044.00
2019-02-14T10:48:59.218Z,1064.00
2019-02-14T10:49:59.275Z,1068.00
2019-02-14T10:50:59.191Z,1068.00
2019-02-14T10:51:59.223Z,1076.00
2019-02-14T10:52:59.172Z,1016.00
2019-02-14T10:53:59.191Z,1072.00
2019-02-14T10:54:59.179Z,1064.00
2019-02-14T10:55:59.184Z,1052.00
2019-02-14T10:56:59.138Z,1060.00
2019-02-14T10:57:59.138Z,1048.00
2019-02-14T10:58:59.289Z,1068.00
2019-02-14T10:59:59.104Z,1044.00
2019-02-14T11:00:59.090Z,1084.00
2019-02-14T11:01:59.080Z,1096.00
2019-02-14T11:02:59.117Z,1060.00
2019-02-14T11:03:59.069Z,1092.00
2019-02-14T11:04:59.093Z,1060.00
2019-02-14T11:05:59.061Z,1096.00
2019-02-14T11:06:59.054Z,1100.00
2019-02-14T11:07:59.048Z,1100.00
2019-02-14T11:08:59.059Z,1096.00
2019-02-14T11:09:59.039Z,1100.00
2019-02-14T11:10:59.001Z,1108.00
2019-02-14T11:11:59.002Z,1088.00
2019-02-14T11:12:59.012Z,1128.00
2019-02-14T11:13:58.962Z,1132.00
2019-02-14T11:14:58.958Z,1132.00
2019-02-14T11:15:58.979Z,1080.00
2019-02-14T11:16:58.980Z,1128.00
2019-02-14T11:17:58.935Z,1100.00
2019-02-14T11:18:58.974Z,1000.00
2019-02-14T11:19:58.908Z,1052.00
2019-02-14T11:20:58.928Z,1124.00
2019-02-14T11:21:58.923Z,1136.00
2019-02-14T11:22:58.925Z,1148.00
2019-02-14T11:23:58.908Z,1132.00
2019-02-14T11:24:59.356Z,1160.00
2019-02-14T11:25:58.845Z,1136.00
2019-02-14T11:26:58.920Z,1196.00
2019-02-14T11:27:58.845Z,1176.00
2019-02-14T11:28:58.842Z,1172.00
2019-02-14T11:29:58.824Z,1128.00
2019-02-14T11:30:58.843Z,1156.00
2019-02-14T11:31:58.795Z,1172.00
2019-02-14T11:32:58.791Z,1156.00
2019-02-14T11:33:58.803Z,1188.00
2019-02-14T11:34:58.826Z,1204.00
2019-02-14T11:35:58.787Z,1120.00
2019-02-14T11:36:58.832Z,1188.00
2019-02-14T11:37:58.733Z,1196.00
2019-02-14T11:38:58.765Z,1184.00
2019-02-14T11:39:58.718Z,1240.00
2019-02-14T11:40:58.707Z,1140.00
2019-02-14T11:41:58.726Z,1216.00
2019-02-14T11:42:58.686Z,1084.00
2019-02-14T11:43:58.755Z,1152.00
2019-02-14T11:44:58.696Z,1220.00
2019-02-14T11:45:59.832Z,1232.00
2019-02-14T11:46:58.665Z,1184.00
2019-02-14T11:47:58.707Z,1244.00
2019-02-14T11:48:58.708Z,1272.00
2019-02-14T11:49:58.719Z,1260.00
2019-02-14T11:50:58.675Z,1304.00
2019-02-14T11:51:58.605Z,1324.00
2019-02-14T11:52:58.620Z,1244.00
2019-02-14T11:53:58.617Z,1248.00
2019-02-14T11:54:58.629Z,1340.00
2019-02-14T11:55:58.625Z,1336.00
2019-02-14T11:56:58.565Z,1384.00
2019-02-14T11:57:58.554Z,1380.00
2019-02-14T11:58:58.551Z,1372.00
2019-02-14T11:59:58.540Z,1376.00
2019-02-14T12:00:58.549Z,1392.00
2019-02-14T12:01:58.527Z,1388.00
2019-02-14T12:02:58.570Z,1388.00
2019-02-14T12:03:58.507Z,1384.00
2019-02-14T12:04:58.496Z,1380.00
2019-02-14T12:05:58.494Z,1376.00
2019-02-14T12:06:58.486Z,1368.00
2019-02-14T12:07:58.554Z,1380.00
2019-02-14T12:09:00.397Z,1380.00
2019-02-14T12:09:58.484Z,1328.00
2019-02-14T12:10:58.442Z,1376.00
2019-02-14T12:11:58.460Z,1404.00
2019-02-14T12:12:58.430Z,1332.00
2019-02-14T12:13:58.414Z,1336.00
2019-02-14T12:14:58.526Z,1376.00
2019-02-14T12:15:58.398Z,1392.00
2019-02-14T12:16:58.390Z,1328.00
2019-02-14T12:17:58.449Z,1340.00
2019-02-14T12:18:58.377Z,1336.00
2019-02-14T12:19:58.443Z,1312.00
2019-02-14T12:20:58.476Z,1256.00
2019-02-14T12:21:58.376Z,1304.00
2019-02-14T12:22:58.375Z,1328.00
2019-02-14T12:23:58.346Z,1324.00
2019-02-14T12:24:58.376Z,1312.00
2019-02-14T12:25:58.333Z,1280.00
2019-02-14T12:26:58.343Z,1176.00
2019-02-14T12:27:58.419Z,1172.00
2019-02-14T12:28:58.338Z,1212.00
2019-02-14T12:29:58.344Z,1088.00
2019-02-14T12:30:58.284Z,1196.00
2019-02-14T12:31:58.331Z,1252.00
2019-02-14T12:32:58.357Z,1160.00
2019-02-14T12:33:58.269Z,1124.00
2019-02-14T12:34:58.367Z,1156.00
2019-02-14T12:35:58.245Z,1148.00
2019-02-14T12:36:58.275Z,1164.00
2019-02-14T12:37:58.302Z,1116.00
2019-02-14T12:38:58.221Z,1228.00
2019-02-14T12:39:58.232Z,1212.00
2019-02-14T12:40:58.209Z,1228.00
2019-02-14T12:41:58.240Z,1284.00
2019-02-14T12:42:58.200Z,1336.00
2019-02-14T12:43:58.185Z,1348.00
2019-02-14T12:44:58.207Z,1292.00
2019-02-14T12:45:58.158Z,1300.00
2019-02-14T12:46:58.162Z,1292.00
2019-02-14T12:47:58.173Z,1280.00
2019-02-14T12:48:58.153Z,1312.00
2019-02-14T12:49:58.166Z,1308.00
2019-02-14T12:50:58.117Z,1288.00
2019-02-14T12:51:58.129Z,228.00
2019-02-14T12:52:58.109Z,744.00
2019-02-14T12:53:58.104Z,696.00
2019-02-14T12:54:58.108Z,608.00
2019-02-14T12:55:58.131Z,628.00
2019-02-14T12:56:58.144Z,640.00
2019-02-14T12:57:58.074Z,680.00
2019-02-14T12:58:58.063Z,684.00
2019-02-14T12:59:58.058Z,660.00
2019-02-14T13:00:58.052Z,860.00